Time;durP1;ratioP1;P1;durP2;ratioP2;P2;SDS_P1;SDS_P2;PMS_P1;PMS_P2;Temp;Humidity;BMP_temperature;BMP_pressure;BME280_temperature;BME280_humidity;BME280_pressure;Samples;Min_cycle;Max_cycle;Signal;HPM_P1;HPM_P2
2022/10/21 00:00:47;;;;;;;;;;;24.10;43.50;;;;;;492277;242;1143;-73
2022/10/21 00:02:49;;;;;;;;;;;24.10;43.30;;;;;;492202;242;1129;-73
2022/10/21 00:04:50;;;;;;;;;;;24.10;43.30;;;;;;492196;242;1198;-74
2022/10/21 00:06:51;;;;;;;;;;;24.10;43.40;;;;;;492220;242;2172;-74
2022/10/21 00:08:53;;;;;;;;;;;24.10;43.40;;;;;;492220;242;1244;-74
2022/10/21 00:10:54;;;;;;;;;;;24.10;43.50;;;;;;492227;242;1216;-74
2022/10/21 00:12:55;;;;;;;;;;;24.10;43.30;;;;;;492255;242;1295;-73
2022/10/21 00:14:56;;;;;;;;;;;24.10;43.40;;;;;;492230;242;1141;-74
2022/10/21 00:16:58;;;;;;;;;;;24.00;43.50;;;;;;492082;242;1163;-74
2022/10/21 00:18:59;;;;;;;;;;;24.10;43.50;;;;;;492272;242;1223;-74
2022/10/21 00:21:00;;;;;;;;;;;24.10;43.50;;;;;;492031;242;1320;-74
2022/10/21 00:23:02;;;;;;;;;;;24.10;43.40;;;;;;492183;242;1180;-74
2022/10/21 00:25:03;;;;;;;;;;;24.10;43.40;;;;;;492159;242;1330;-74
2022/10/21 00:27:05;;;;;;;;;;;24.10;43.40;;;;;;492026;242;2157;-74
2022/10/21 00:29:06;;;;;;;;;;;24.10;43.50;;;;;;492230;242;1223;-74
2022/10/21 00:31:07;;;;;;;;;;;24.10;43.50;;;;;;492236;242;1204;-74
2022/10/21 00:33:08;;;;;;;;;;;24.10;43.50;;;;;;492196;242;1098;-74
2022/10/21 00:35:10;;;;;;;;;;;24.20;43.40;;;;;;492208;242;1156;-74
2022/10/21 00:37:11;;;;;;;;;;;24.10;43.50;;;;;;492153;242;1309;-74
2022/10/21 00:39:13;;;;;;;;;;;24.10;43.40;;;;;;492229;242;1176;-74
2022/10/21 00:41:14;;;;;;;;;;;24.10;43.50;;;;;;492210;242;1262;-74
2022/10/21 00:43:15;;;;;;;;;;;24.20;43.40;;;;;;492266;242;1118;-74
2022/10/21 00:45:16;;;;;;;;;;;24.10;43.60;;;;;;492334;242;1221;-74
2022/10/21 00:47:18;;;;;;;;;;;24.20;43.50;;;;;;492225;242;2188;-74
2022/10/21 00:49:20;;;;;;;;;;;24.20;43.40;;;;;;492294;242;1208;-74
2022/10/21 00:51:21;;;;;;;;;;;24.20;43.40;;;;;;492201;242;1222;-74
2022/10/21 00:53:22;;;;;;;;;;;24.20;43.40;;;;;;492288;242;1136;-74
2022/10/21 00:55:24;;;;;;;;;;;24.10;43.40;;;;;;492314;242;1116;-74
2022/10/21 00:57:25;;;;;;;;;;;24.20;43.50;;;;;;492217;242;1164;-74
2022/10/21 00:59:26;;;;;;;;;;;24.10;43.50;;;;;;492281;242;1164;-74
2022/10/21 01:01:28;;;;;;;;;;;24.20;43.50;;;;;;492177;242;1154;-74
2022/10/21 01:03:29;;;;;;;;;;;24.20;43.50;;;;;;492246;242;1175;-74
2022/10/21 01:05:30;;;;;;;;;;;24.20;43.60;;;;;;492197;242;1186;-73
2022/10/21 01:07:32;;;;;;;;;;;24.10;43.60;;;;;;492154;242;2203;-74
2022/10/21 01:09:33;;;;;;;;;;;24.30;43.60;;;;;;492220;242;1178;-74
2022/10/21 01:11:34;;;;;;;;;;;24.20;43.50;;;;;;492333;242;1176;-73
2022/10/21 01:13:36;;;;;;;;;;;24.20;43.50;;;;;;492212;242;1378;-74
2022/10/21 01:15:37;;;;;;;;;;;24.20;43.60;;;;;;492234;242;1133;-73
2022/10/21 01:17:38;;;;;;;;;;;24.10;43.60;;;;;;492180;242;1308;-74
2022/10/21 01:19:40;;;;;;;;;;;24.10;43.70;;;;;;492325;242;1076;-74
2022/10/21 01:21:41;;;;;;;;;;;24.20;43.80;;;;;;492211;242;1085;-74
2022/10/21 01:23:42;;;;;;;;;;;24.10;43.60;;;;;;492212;242;1173;-74
2022/10/21 01:25:44;;;;;;;;;;;24.20;43.60;;;;;;492259;242;1188;-74
2022/10/21 01:27:45;;;;;;;;;;;24.20;43.60;;;;;;492240;242;2180;-74
2022/10/21 01:29:46;;;;;;;;;;;24.20;43.60;;;;;;492250;242;1060;-74
2022/10/21 01:31:48;;;;;;;;;;;24.20;43.70;;;;;;492226;242;1233;-74
2022/10/21 01:33:49;;;;;;;;;;;24.20;43.60;;;;;;492190;242;1283;-74
2022/10/21 01:35:50;;;;;;;;;;;24.20;43.60;;;;;;492255;242;1375;-74
2022/10/21 01:37:52;;;;;;;;;;;24.20;43.50;;;;;;492218;242;1198;-74
2022/10/21 01:39:53;;;;;;;;;;;24.20;43.60;;;;;;492168;242;1176;-73
2022/10/21 01:41:54;;;;;;;;;;;24.20;43.70;;;;;;492203;242;1191;-74
2022/10/21 01:43:56;;;;;;;;;;;24.20;43.60;;;;;;492186;242;1257;-74
2022/10/21 01:45:57;;;;;;;;;;;24.20;43.70;;;;;;492190;242;1165;-74
2022/10/21 01:47:58;;;;;;;;;;;24.20;43.60;;;;;;492227;242;2207;-74
2022/10/21 01:50:00;;;;;;;;;;;24.20;43.60;;;;;;492160;242;1240;-74
2022/10/21 01:52:01;;;;;;;;;;;24.20;43.60;;;;;;492201;242;1178;-73
2022/10/21 01:54:02;;;;;;;;;;;24.20;43.60;;;;;;492216;242;1203;-74
2022/10/21 01:56:04;;;;;;;;;;;24.20;43.70;;;;;;492264;242;1278;-74
2022/10/21 01:58:05;;;;;;;;;;;24.20;43.60;;;;;;492261;242;1192;-74
2022/10/21 02:00:06;;;;;;;;;;;24.20;43.50;;;;;;492208;242;1178;-74
2022/10/21 02:02:08;;;;;;;;;;;24.20;43.60;;;;;;492207;242;1213;-74
2022/10/21 02:04:09;;;;;;;;;;;24.20;43.60;;;;;;492173;242;1134;-73
2022/10/21 02:06:12;;;;;;;;;;;24.20;43.60;;;;;;492213;242;1202;-74
2022/10/21 02:08:12;;;;;;;;;;;24.20;43.80;;;;;;492167;242;2195;-74
2022/10/21 02:10:14;;;;;;;;;;;24.10;43.80;;;;;;492205;242;1147;-74
2022/10/21 02:12:15;;;;;;;;;;;24.10;43.80;;;;;;492257;242;1177;-74
2022/10/21 02:14:16;;;;;;;;;;;24.20;43.80;;;;;;492239;242;1250;-74
2022/10/21 02:16:18;;;;;;;;;;;24.10;43.80;;;;;;492199;242;1162;-74
2022/10/21 02:18:19;;;;;;;;;;;24.10;43.80;;;;;;492187;242;1148;-74
2022/10/21 02:20:20;;;;;;;;;;;24.10;43.80;;;;;;492159;242;1183;-74
2022/10/21 02:22:22;;;;;;;;;;;24.10;43.90;;;;;;492190;242;1196;-74
2022/10/21 02:24:23;;;;;;;;;;;24.10;43.80;;;;;;492267;242;1210;-74
2022/10/21 02:26:24;;;;;;;;;;;24.10;43.80;;;;;;492289;242;1150;-74
2022/10/21 02:28:26;;;;;;;;;;;24.10;43.90;;;;;;492255;242;2137;-74
2022/10/21 02:30:27;;;;;;;;;;;24.10;43.90;;;;;;492289;242;1182;-74
2022/10/21 02:32:28;;;;;;;;;;;24.10;43.90;;;;;;492201;242;1170;-74
2022/10/21 02:34:30;;;;;;;;;;;24.10;43.90;;;;;;492203;242;1085;-74
2022/10/21 02:36:31;;;;;;;;;;;24.10;43.90;;;;;;492221;242;1091;-74
2022/10/21 02:38:32;;;;;;;;;;;24.10;43.80;;;;;;492299;242;1153;-74
2022/10/21 02:40:34;;;;;;;;;;;24.10;43.80;;;;;;492308;242;1106;-74
2022/10/21 02:42:35;;;;;;;;;;;24.10;43.90;;;;;;492163;242;1143;-74
2022/10/21 02:44:36;;;;;;;;;;;24.10;43.90;;;;;;492367;242;1145;-74
2022/10/21 02:46:38;;;;;;;;;;;24.10;43.90;;;;;;492251;242;1097;-74
2022/10/21 02:48:39;;;;;;;;;;;24.10;43.90;;;;;;492218;242;2200;-74
2022/10/21 02:50:40;;;;;;;;;;;24.10;43.90;;;;;;492172;242;1152;-74
2022/10/21 02:52:42;;;;;;;;;;;24.10;43.90;;;;;;492118;242;1180;-74
2022/10/21 02:54:43;;;;;;;;;;;24.10;43.80;;;;;;492213;242;1108;-74
2022/10/21 02:56:44;;;;;;;;;;;24.10;43.80;;;;;;492055;242;1188;-74
2022/10/21 02:58:46;;;;;;;;;;;24.10;43.80;;;;;;492236;242;1119;-74
2022/10/21 03:00:47;;;;;;;;;;;24.10;43.90;;;;;;492206;242;1168;-74
2022/10/21 03:02:48;;;;;;;;;;;24.20;43.90;;;;;;492180;242;1237;-74
2022/10/21 03:04:50;;;;;;;;;;;24.20;43.80;;;;;;492192;242;1200;-74
2022/10/21 03:06:51;;;;;;;;;;;24.10;43.80;;;;;;491988;242;1163;-74
2022/10/21 03:08:52;;;;;;;;;;;24.10;43.90;;;;;;492135;242;2240;-74
2022/10/21 03:10:54;;;;;;;;;;;24.20;43.90;;;;;;492139;242;1428;-74
2022/10/21 03:12:55;;;;;;;;;;;24.20;43.80;;;;;;492129;242;1181;-74
2022/10/21 03:14:56;;;;;;;;;;;24.20;43.90;;;;;;492184;242;1147;-74
2022/10/21 03:16:58;;;;;;;;;;;24.20;43.90;;;;;;492074;242;1279;-73
2022/10/21 03:18:59;;;;;;;;;;;24.10;43.90;;;;;;492184;242;1176;-73
2022/10/21 03:21:00;;;;;;;;;;;24.20;43.90;;;;;;492124;242;1251;-74
2022/10/21 03:23:02;;;;;;;;;;;24.20;44.00;;;;;;492122;242;1226;-74
2022/10/21 03:25:03;;;;;;;;;;;24.10;43.90;;;;;;492241;242;1215;-74
2022/10/21 03:27:04;;;;;;;;;;;24.10;44.00;;;;;;492089;242;1138;-74
2022/10/21 03:29:06;;;;;;;;;;;24.20;44.00;;;;;;492200;242;2200;-74
2022/10/21 03:31:07;;;;;;;;;;;24.20;44.00;;;;;;492241;242;1146;-74
2022/10/21 03:33:08;;;;;;;;;;;24.20;44.00;;;;;;492263;242;1245;-74
2022/10/21 03:35:10;;;;;;;;;;;24.20;44.00;;;;;;492156;242;1176;-74
2022/10/21 03:37:11;;;;;;;;;;;24.20;44.10;;;;;;492218;242;1178;-74
2022/10/21 03:39:12;;;;;;;;;;;24.20;44.10;;;;;;492185;242;1190;-74
2022/10/21 03:41:14;;;;;;;;;;;24.20;44.10;;;;;;492232;242;1338;-74
2022/10/21 03:43:15;;;;;;;;;;;24.20;44.10;;;;;;492218;242;1164;-74
2022/10/21 03:45:16;;;;;;;;;;;24.10;44.10;;;;;;492275;242;1220;-74
2022/10/21 03:47:18;;;;;;;;;;;24.20;44.10;;;;;;492222;242;1162;-74
2022/10/21 03:49:19;;;;;;;;;;;24.20;44.20;;;;;;492223;242;2180;-74
2022/10/21 03:51:20;;;;;;;;;;;24.10;44.30;;;;;;492235;242;1128;-74
2022/10/21 03:53:22;;;;;;;;;;;24.20;44.30;;;;;;492246;242;1188;-74
2022/10/21 03:55:24;;;;;;;;;;;24.20;44.20;;;;;;492215;242;1137;-74
2022/10/21 03:57:24;;;;;;;;;;;24.20;44.10;;;;;;492238;242;1337;-74
2022/10/21 03:59:26;;;;;;;;;;;24.20;44.20;;;;;;492215;242;1256;-74
2022/10/21 04:01:27;;;;;;;;;;;24.20;44.30;;;;;;492172;242;1202;-74
2022/10/21 04:03:29;;;;;;;;;;;24.10;44.30;;;;;;492190;242;1132;-74
2022/10/21 04:05:30;;;;;;;;;;;24.20;44.30;;;;;;492172;242;1283;-74
2022/10/21 04:07:31;;;;;;;;;;;24.20;44.40;;;;;;492221;242;2199;-74
2022/10/21 04:09:33;;;;;;;;;;;24.20;44.50;;;;;;492224;242;1243;-74
2022/10/21 04:11:34;;;;;;;;;;;24.10;44.40;;;;;;492108;242;1181;-74
2022/10/21 04:13:35;;;;;;;;;;;24.10;44.40;;;;;;492116;242;1207;-74
2022/10/21 04:15:37;;;;;;;;;;;24.20;44.40;;;;;;492173;242;1192;-74
2022/10/21 04:17:38;;;;;;;;;;;24.20;44.40;;;;;;492128;242;1174;-73
2022/10/21 04:19:39;;;;;;;;;;;24.10;44.40;;;;;;492129;242;1242;-73
2022/10/21 04:21:41;;;;;;;;;;;24.20;44.30;;;;;;492062;242;1186;-74
2022/10/21 04:23:42;;;;;;;;;;;24.20;44.40;;;;;;492147;242;1156;-74
2022/10/21 04:25:43;;;;;;;;;;;24.20;44.40;;;;;;492151;242;1155;-74
2022/10/21 04:27:45;;;;;;;;;;;24.20;44.50;;;;;;492076;242;2183;-74
2022/10/21 04:29:46;;;;;;;;;;;24.10;44.40;;;;;;492122;242;1414;-74
2022/10/21 04:31:47;;;;;;;;;;;24.20;44.40;;;;;;492206;242;1235;-74
2022/10/21 04:33:50;;;;;;;;;;;24.20;44.40;;;;;;492101;242;1237;-74
2022/10/21 04:35:50;;;;;;;;;;;24.20;44.40;;;;;;492069;242;2002;-74
2022/10/21 04:37:52;;;;;;;;;;;24.20;44.40;;;;;;492110;242;1260;-74
2022/10/21 04:39:53;;;;;;;;;;;24.10;44.40;;;;;;492109;242;1186;-74
2022/10/21 04:41:55;;;;;;;;;;;24.20;44.40;;;;;;492077;242;1172;-74
2022/10/21 04:43:56;;;;;;;;;;;24.20;44.40;;;;;;492129;242;1369;-74
2022/10/21 04:45:57;;;;;;;;;;;24.10;44.40;;;;;;492152;242;1218;-74
2022/10/21 04:47:58;;;;;;;;;;;24.10;44.40;;;;;;492052;242;2192;-74
2022/10/21 04:50:00;;;;;;;;;;;24.10;44.40;;;;;;492147;242;1209;-74
2022/10/21 04:52:01;;;;;;;;;;;24.10;44.50;;;;;;492020;242;1194;-73
2022/10/21 04:54:02;;;;;;;;;;;24.10;44.50;;;;;;492068;242;1144;-74
2022/10/21 04:56:03;;;;;;;;;;;24.10;44.40;;;;;;492057;242;1195;-74
2022/10/21 04:58:05;;;;;;;;;;;24.10;44.50;;;;;;492006;242;1278;-74
2022/10/21 05:00:06;;;;;;;;;;;24.10;44.40;;;;;;492008;242;1151;-74
2022/10/21 05:02:07;;;;;;;;;;;24.10;44.50;;;;;;491989;242;1347;-74
2022/10/21 05:04:09;;;;;;;;;;;24.10;44.50;;;;;;492024;242;1097;-74
2022/10/21 05:06:10;;;;;;;;;;;24.10;44.50;;;;;;491951;242;1266;-74
2022/10/21 05:08:11;;;;;;;;;;;24.10;44.40;;;;;;491915;242;2144;-73
2022/10/21 05:10:13;;;;;;;;;;;24.10;44.40;;;;;;491989;242;1166;-73
2022/10/21 05:12:14;;;;;;;;;;;24.10;44.50;;;;;;491995;242;1162;-73
2022/10/21 05:14:15;;;;;;;;;;;24.10;44.40;;;;;;492019;242;1156;-73
2022/10/21 05:16:17;;;;;;;;;;;24.10;44.40;;;;;;492059;242;1195;-73
2022/10/21 05:18:18;;;;;;;;;;;24.10;44.40;;;;;;491928;242;1257;-73
2022/10/21 05:20:19;;;;;;;;;;;24.10;44.30;;;;;;492013;242;1153;-73
2022/10/21 05:22:21;;;;;;;;;;;24.10;44.40;;;;;;492077;242;1161;-73
2022/10/21 05:24:22;;;;;;;;;;;24.10;44.30;;;;;;492031;242;1537;-73
2022/10/21 05:26:23;;;;;;;;;;;24.10;44.30;;;;;;492104;242;1209;-73
2022/10/21 05:28:25;;;;;;;;;;;24.10;44.20;;;;;;492129;242;2188;-73
2022/10/21 05:30:26;;;;;;;;;;;24.10;44.30;;;;;;492169;242;1205;-73
2022/10/21 05:32:27;;;;;;;;;;;24.10;44.20;;;;;;492264;242;1236;-73
2022/10/21 05:34:29;;;;;;;;;;;24.10;44.20;;;;;;492149;242;1200;-73
2022/10/21 05:36:30;;;;;;;;;;;24.10;44.30;;;;;;492098;242;1147;-73
2022/10/21 05:38:31;;;;;;;;;;;24.10;44.20;;;;;;492098;242;1162;-73
2022/10/21 05:40:32;;;;;;;;;;;24.10;44.20;;;;;;492095;242;1157;-73
2022/10/21 05:42:34;;;;;;;;;;;24.10;44.20;;;;;;492064;242;1185;-73
2022/10/21 05:44:35;;;;;;;;;;;24.10;44.30;;;;;;492146;242;1300;-73
2022/10/21 05:46:36;;;;;;;;;;;24.10;44.30;;;;;;492013;242;1178;-74
2022/10/21 05:48:38;;;;;;;;;;;24.10;44.30;;;;;;492206;242;2199;-74
2022/10/21 05:50:39;;;;;;;;;;;24.10;44.30;;;;;;492055;242;1203;-74
2022/10/21 05:52:40;;;;;;;;;;;24.00;44.30;;;;;;492060;242;1315;-74
2022/10/21 05:54:42;;;;;;;;;;;24.10;44.20;;;;;;492047;242;1158;-74
2022/10/21 05:56:43;;;;;;;;;;;24.10;44.20;;;;;;491951;242;1130;-74
2022/10/21 05:58:44;;;;;;;;;;;24.00;44.20;;;;;;492004;242;1195;-74
2022/10/21 06:00:46;;;;;;;;;;;24.00;44.30;;;;;;492108;242;1185;-74
2022/10/21 06:02:47;;;;;;;;;;;24.00;44.20;;;;;;492085;242;1184;-74
2022/10/21 06:04:48;;;;;;;;;;;24.10;44.30;;;;;;492017;242;1165;-74
2022/10/21 06:06:50;;;;;;;;;;;24.10;44.20;;;;;;491893;242;1167;-74
2022/10/21 06:08:51;;;;;;;;;;;24.10;44.20;;;;;;492019;242;2191;-74
2022/10/21 06:10:52;;;;;;;;;;;24.00;44.30;;;;;;492023;242;1188;-74
2022/10/21 06:12:54;;;;;;;;;;;24.10;44.30;;;;;;491925;242;1221;-73
2022/10/21 06:14:55;;;;;;;;;;;24.00;44.30;;;;;;492038;242;1281;-73
2022/10/21 06:16:56;;;;;;;;;;;24.00;44.20;;;;;;492036;242;1195;-73
2022/10/21 06:18:58;;;;;;;;;;;24.00;44.30;;;;;;491888;242;1139;-73
2022/10/21 06:20:59;;;;;;;;;;;24.10;44.40;;;;;;492067;242;1225;-73
2022/10/21 06:23:00;;;;;;;;;;;24.10;44.50;;;;;;491880;242;1161;-74
2022/10/21 06:25:02;;;;;;;;;;;24.00;44.50;;;;;;491980;242;1173;-74
2022/10/21 06:27:03;;;;;;;;;;;24.00;44.50;;;;;;491858;242;1219;-74
2022/10/21 06:29:04;;;;;;;;;;;24.00;44.50;;;;;;491949;242;2192;-74
2022/10/21 06:31:06;;;;;;;;;;;24.00;44.50;;;;;;492058;242;1267;-74
2022/10/21 06:33:07;;;;;;;;;;;24.00;44.40;;;;;;492014;242;1203;-73
2022/10/21 06:35:08;;;;;;;;;;;24.00;44.50;;;;;;491969;242;1138;-73
2022/10/21 06:37:10;;;;;;;;;;;24.00;44.50;;;;;;491847;242;1329;-73
2022/10/21 06:39:11;;;;;;;;;;;24.00;44.50;;;;;;492035;242;1259;-73
2022/10/21 06:41:12;;;;;;;;;;;24.00;44.60;;;;;;491974;242;1227;-73
2022/10/21 06:43:14;;;;;;;;;;;23.90;44.60;;;;;;492069;242;1173;-73
2022/10/21 06:45:15;;;;;;;;;;;23.90;44.60;;;;;;492037;242;1114;-73
2022/10/21 06:47:16;;;;;;;;;;;23.90;44.60;;;;;;491965;242;1094;-73
2022/10/21 06:49:18;;;;;;;;;;;24.00;44.50;;;;;;492062;242;2192;-73
2022/10/21 06:51:19;;;;;;;;;;;23.90;44.60;;;;;;492131;242;1077;-73
2022/10/21 06:53:20;;;;;;;;;;;23.90;44.60;;;;;;491968;242;1084;-73
2022/10/21 06:55:21;;;;;;;;;;;23.90;44.70;;;;;;491993;242;1094;-73
2022/10/21 06:57:23;;;;;;;;;;;23.90;44.70;;;;;;491826;242;1135;-73
2022/10/21 06:59:24;;;;;;;;;;;23.90;44.70;;;;;;491947;242;1161;-73
2022/10/21 07:01:25;;;;;;;;;;;23.90;44.60;;;;;;491956;242;1208;-73
2022/10/21 07:03:27;;;;;;;;;;;23.90;44.60;;;;;;492036;242;1251;-73
2022/10/21 07:05:28;;;;;;;;;;;23.80;44.60;;;;;;491942;242;1087;-73
2022/10/21 07:07:29;;;;;;;;;;;23.70;44.60;;;;;;491876;242;1185;-74
2022/10/21 07:09:31;;;;;;;;;;;23.80;44.80;;;;;;491686;242;2160;-73
2022/10/21 07:11:32;;;;;;;;;;;23.70;44.70;;;;;;492042;242;1148;-73
2022/10/21 07:13:33;;;;;;;;;;;23.80;44.80;;;;;;491764;242;1172;-73
2022/10/21 07:15:35;;;;;;;;;;;23.80;44.70;;;;;;491841;242;1110;-73
2022/10/21 07:17:36;;;;;;;;;;;23.80;44.70;;;;;;491872;242;1177;-73
2022/10/21 07:19:37;;;;;;;;;;;23.70;44.70;;;;;;492008;242;1408;-73
2022/10/21 07:21:39;;;;;;;;;;;23.80;44.80;;;;;;491917;242;1262;-73
2022/10/21 07:23:40;;;;;;;;;;;23.80;44.80;;;;;;491970;242;1177;-73
2022/10/21 07:25:41;;;;;;;;;;;23.70;44.80;;;;;;491945;242;1173;-73
2022/10/21 07:27:43;;;;;;;;;;;23.70;44.80;;;;;;491870;242;1136;-73
2022/10/21 07:29:44;;;;;;;;;;;23.70;44.90;;;;;;491994;242;2196;-73
2022/10/21 07:31:45;;;;;;;;;;;23.70;44.90;;;;;;491913;242;1297;-73
2022/10/21 07:33:47;;;;;;;;;;;23.70;44.80;;;;;;491929;242;1180;-73
2022/10/21 07:35:48;;;;;;;;;;;23.70;44.80;;;;;;491930;242;1092;-73
2022/10/21 07:37:49;;;;;;;;;;;23.70;45.00;;;;;;491936;242;1193;-74
2022/10/21 07:39:50;;;;;;;;;;;23.80;44.80;;;;;;491910;242;1181;-74
2022/10/21 07:41:52;;;;;;;;;;;23.70;44.90;;;;;;491977;242;1198;-73
2022/10/21 07:43:53;;;;;;;;;;;23.70;45.00;;;;;;491869;242;1160;-73
2022/10/21 07:45:54;;;;;;;;;;;23.80;44.80;;;;;;491889;242;1184;-73
2022/10/21 07:47:56;;;;;;;;;;;23.90;44.70;;;;;;491845;242;1228;-74
2022/10/21 07:49:57;;;;;;;;;;;23.90;44.70;;;;;;491945;242;2196;-74
2022/10/21 07:51:58;;;;;;;;;;;23.90;44.70;;;;;;491959;242;1150;-73
2022/10/21 07:54:00;;;;;;;;;;;23.90;44.60;;;;;;491834;242;1258;-73
2022/10/21 07:56:01;;;;;;;;;;;23.90;44.60;;;;;;491862;242;1325;-73
2022/10/21 07:58:03;;;;;;;;;;;23.90;44.70;;;;;;491868;242;1087;-73
2022/10/21 08:00:04;;;;;;;;;;;23.90;44.70;;;;;;491888;242;1489;-74
2022/10/21 08:02:05;;;;;;;;;;;23.90;44.80;;;;;;491786;242;1161;-74
2022/10/21 08:04:06;;;;;;;;;;;23.90;44.70;;;;;;491875;242;1190;-73
2022/10/21 08:06:08;;;;;;;;;;;23.90;44.80;;;;;;491892;242;1109;-73
2022/10/21 08:08:09;;;;;;;;;;;23.90;44.80;;;;;;491822;242;1159;-73
2022/10/21 08:10:10;;;;;;;;;;;23.90;44.90;;;;;;491972;242;2152;-73
2022/10/21 08:12:12;;;;;;;;;;;23.90;44.70;;;;;;491750;242;1203;-73
2022/10/21 08:14:13;;;;;;;;;;;23.90;44.80;;;;;;491957;242;1170;-73
2022/10/21 08:16:14;;;;;;;;;;;23.90;44.90;;;;;;491809;242;1112;-73
2022/10/21 08:18:16;;;;;;;;;;;23.90;44.80;;;;;;491942;242;1073;-73
2022/10/21 08:20:17;;;;;;;;;;;24.00;45.00;;;;;;491822;242;1174;-73
2022/10/21 08:22:18;;;;;;;;;;;23.90;45.00;;;;;;491666;242;1148;-73
2022/10/21 08:24:20;;;;;;;;;;;23.90;44.90;;;;;;491873;242;1140;-73
2022/10/21 08:26:21;;;;;;;;;;;23.90;45.00;;;;;;491789;242;1318;-74
2022/10/21 08:28:22;;;;;;;;;;;23.90;44.90;;;;;;491956;242;1351;-74
2022/10/21 08:30:24;;;;;;;;;;;23.90;45.00;;;;;;491776;242;2184;-73
2022/10/21 08:32:25;;;;;;;;;;;23.90;45.00;;;;;;491738;242;1271;-73
2022/10/21 08:34:26;;;;;;;;;;;24.00;45.00;;;;;;491824;242;1093;-73
2022/10/21 08:36:28;;;;;;;;;;;23.90;45.00;;;;;;491876;242;1149;-73
2022/10/21 08:38:29;;;;;;;;;;;23.90;45.10;;;;;;491896;242;1255;-73
2022/10/21 08:40:30;;;;;;;;;;;23.90;45.10;;;;;;491815;242;1221;-73
2022/10/21 08:42:32;;;;;;;;;;;23.90;45.20;;;;;;491895;242;1095;-73
2022/10/21 08:44:33;;;;;;;;;;;23.90;45.20;;;;;;491870;242;1143;-74
2022/10/21 08:46:34;;;;;;;;;;;23.90;45.10;;;;;;491839;242;1164;-74
2022/10/21 08:48:36;;;;;;;;;;;23.80;45.40;;;;;;491879;242;1171;-74
2022/10/21 08:50:37;;;;;;;;;;;23.80;45.30;;;;;;491872;242;2215;-74
2022/10/21 08:52:38;;;;;;;;;;;23.90;45.40;;;;;;491786;242;1440;-74
2022/10/21 08:54:39;;;;;;;;;;;23.80;45.40;;;;;;491847;242;1105;-74
2022/10/21 08:56:41;;;;;;;;;;;23.80;45.40;;;;;;491987;242;1180;-74
2022/10/21 08:58:42;;;;;;;;;;;23.90;45.40;;;;;;491981;242;1158;-73
2022/10/21 09:00:44;;;;;;;;;;;23.90;45.30;;;;;;491945;242;1197;-73
2022/10/21 09:02:45;;;;;;;;;;;23.80;45.40;;;;;;491881;242;1180;-73
2022/10/21 09:04:47;;;;;;;;;;;23.80;45.40;;;;;;491906;242;1122;-73
2022/10/21 09:06:48;;;;;;;;;;;23.80;45.40;;;;;;491836;242;1211;-73
2022/10/21 09:08:49;;;;;;;;;;;23.90;45.50;;;;;;491823;242;1129;-73
2022/10/21 09:10:50;;;;;;;;;;;23.80;45.40;;;;;;491819;242;2141;-74
2022/10/21 09:12:52;;;;;;;;;;;23.80;45.50;;;;;;491865;242;1152;-74
2022/10/21 09:14:55;;;;;;;;;;;23.80;45.60;;;;;;491809;242;1162;-73
2022/10/21 09:16:55;;;;;;;;;;;23.90;45.50;;;;;;491701;242;1322;-73
2022/10/21 09:18:56;;;;;;;;;;;23.90;45.50;;;;;;491869;242;1080;-73
2022/10/21 09:20:57;;;;;;;;;;;23.80;45.50;;;;;;491892;242;1181;-73
2022/10/21 09:22:59;;;;;;;;;;;23.80;45.60;;;;;;491862;242;1184;-73
2022/10/21 09:25:00;;;;;;;;;;;23.80;45.60;;;;;;491867;242;1425;-73
2022/10/21 09:27:01;;;;;;;;;;;23.80;45.60;;;;;;491810;242;1097;-73
2022/10/21 09:29:03;;;;;;;;;;;23.80;45.50;;;;;;491805;242;1145;-74
2022/10/21 09:31:04;;;;;;;;;;;23.90;45.50;;;;;;491786;242;2191;-74
2022/10/21 09:33:05;;;;;;;;;;;23.90;45.60;;;;;;491730;242;1245;-74
2022/10/21 09:35:07;;;;;;;;;;;23.80;45.60;;;;;;491733;242;1234;-74
2022/10/21 09:37:08;;;;;;;;;;;23.80;45.70;;;;;;491818;242;1210;-74
2022/10/21 09:39:09;;;;;;;;;;;23.80;45.70;;;;;;491935;242;1201;-74
2022/10/21 09:41:11;;;;;;;;;;;23.70;45.70;;;;;;491956;242;1174;-74
2022/10/21 09:43:12;;;;;;;;;;;23.90;45.60;;;;;;491833;242;1163;-73
2022/10/21 09:45:13;;;;;;;;;;;23.90;45.60;;;;;;491641;242;1071;-73
2022/10/21 09:47:15;;;;;;;;;;;23.90;45.50;;;;;;491857;242;1201;-73
2022/10/21 09:49:16;;;;;;;;;;;23.80;45.60;;;;;;491825;242;1238;-73
2022/10/21 09:51:17;;;;;;;;;;;23.80;45.60;;;;;;491694;242;2192;-73
2022/10/21 09:53:19;;;;;;;;;;;23.80;45.60;;;;;;491621;242;1460;-73
2022/10/21 09:55:20;;;;;;;;;;;23.90;45.50;;;;;;491223;242;1161;-73
2022/10/21 09:57:22;;;;;;;;;;;23.90;45.40;;;;;;491766;242;1634;-73
2022/10/21 09:59:24;;;;;;;;;;;23.90;45.50;;;;;;491737;242;1305;-73
2022/10/21 10:01:24;;;;;;;;;;;23.90;45.50;;;;;;491699;242;1345;-74
2022/10/21 10:03:25;;;;;;;;;;;23.90;45.50;;;;;;491924;242;1096;-74
2022/10/21 10:05:26;;;;;;;;;;;23.90;45.50;;;;;;491937;242;1105;-74
2022/10/21 10:07:28;;;;;;;;;;;23.90;45.40;;;;;;491777;242;1219;-74
2022/10/21 10:09:29;;;;;;;;;;;23.90;45.60;;;;;;491706;242;1133;-74
2022/10/21 10:11:30;;;;;;;;;;;23.90;45.60;;;;;;491821;242;2121;-73
2022/10/21 10:13:32;;;;;;;;;;;23.90;45.60;;;;;;491699;242;1204;-74
2022/10/21 10:15:33;;;;;;;;;;;23.90;45.50;;;;;;491705;242;1125;-74
2022/10/21 10:17:36;;;;;;;;;;;24.00;45.60;;;;;;491866;242;1176;-74
2022/10/21 10:19:36;;;;;;;;;;;23.90;45.70;;;;;;491810;242;1321;-74
2022/10/21 10:21:37;;;;;;;;;;;23.90;45.70;;;;;;491841;242;1277;-74
2022/10/21 10:23:38;;;;;;;;;;;24.00;45.80;;;;;;491820;242;1109;-73
2022/10/21 10:25:40;;;;;;;;;;;23.90;45.70;;;;;;491925;242;1174;-74
2022/10/21 10:27:41;;;;;;;;;;;23.90;45.80;;;;;;491756;242;1183;-74
2022/10/21 10:29:42;;;;;;;;;;;24.00;45.80;;;;;;491906;242;1234;-73
2022/10/21 10:31:44;;;;;;;;;;;23.90;45.80;;;;;;491929;242;2192;-73
2022/10/21 10:33:45;;;;;;;;;;;23.90;45.90;;;;;;491918;242;1172;-73
2022/10/21 10:35:46;;;;;;;;;;;23.90;45.80;;;;;;491849;242;1286;-73
2022/10/21 10:37:48;;;;;;;;;;;24.00;45.80;;;;;;491818;242;1183;-73
2022/10/21 10:39:49;;;;;;;;;;;24.00;45.70;;;;;;491925;242;1210;-73
2022/10/21 10:41:50;;;;;;;;;;;24.00;45.70;;;;;;491932;242;1136;-73
2022/10/21 10:43:52;;;;;;;;;;;24.00;45.80;;;;;;491848;242;1153;-73
2022/10/21 10:45:53;;;;;;;;;;;24.00;45.80;;;;;;491804;242;1139;-73
2022/10/21 10:47:54;;;;;;;;;;;24.00;45.90;;;;;;491923;242;1226;-73
2022/10/21 10:49:56;;;;;;;;;;;24.00;45.70;;;;;;491784;242;2191;-73
2022/10/21 10:51:57;;;;;;;;;;;24.10;45.80;;;;;;491896;242;1144;-73
2022/10/21 10:53:58;;;;;;;;;;;24.10;45.80;;;;;;491874;242;1162;-73
2022/10/21 10:56:00;;;;;;;;;;;24.00;45.80;;;;;;491802;242;1177;-73
2022/10/21 10:58:01;;;;;;;;;;;24.00;45.80;;;;;;491803;242;1175;-73
2022/10/21 11:00:02;;;;;;;;;;;24.00;45.80;;;;;;491854;242;1198;-74
2022/10/21 11:02:04;;;;;;;;;;;24.00;45.90;;;;;;491344;242;1201;-74
2022/10/21 11:04:05;;;;;;;;;;;24.00;46.00;;;;;;491762;242;1061;-74
2022/10/21 11:06:06;;;;;;;;;;;24.00;45.80;;;;;;491746;242;1164;-73
2022/10/21 11:08:08;;;;;;;;;;;24.10;45.80;;;;;;491805;242;1153;-73
2022/10/21 11:10:09;;;;;;;;;;;24.10;45.80;;;;;;491836;242;2168;-73
2022/10/21 11:12:10;;;;;;;;;;;24.10;45.90;;;;;;491844;242;1146;-73
2022/10/21 11:14:12;;;;;;;;;;;24.00;45.90;;;;;;491863;242;1184;-73
2022/10/21 11:16:13;;;;;;;;;;;24.10;45.90;;;;;;491842;242;1148;-73
2022/10/21 11:18:14;;;;;;;;;;;24.10;45.90;;;;;;491799;242;1180;-73
2022/10/21 11:20:16;;;;;;;;;;;24.10;45.90;;;;;;491793;242;1225;-73
2022/10/21 11:22:17;;;;;;;;;;;24.00;46.10;;;;;;491843;242;1255;-73
2022/10/21 11:24:18;;;;;;;;;;;24.10;46.20;;;;;;491879;242;1160;-73
2022/10/21 11:26:19;;;;;;;;;;;24.00;46.20;;;;;;491862;242;1150;-74
2022/10/21 11:28:21;;;;;;;;;;;24.00;46.30;;;;;;491859;242;1165;-74
2022/10/21 11:30:22;;;;;;;;;;;24.00;46.30;;;;;;491887;242;2136;-74
2022/10/21 11:32:23;;;;;;;;;;;24.00;46.30;;;;;;491939;242;1133;-74
2022/10/21 11:34:25;;;;;;;;;;;24.00;46.30;;;;;;492015;242;1135;-74
2022/10/21 11:36:26;;;;;;;;;;;24.00;46.40;;;;;;491957;242;1222;-74
2022/10/21 11:38:27;;;;;;;;;;;24.00;46.40;;;;;;491904;242;1159;-73
2022/10/21 11:40:29;;;;;;;;;;;24.00;46.50;;;;;;491937;242;1224;-73
2022/10/21 11:42:30;;;;;;;;;;;24.00;46.60;;;;;;491861;242;1264;-73
2022/10/21 11:44:32;;;;;;;;;;;24.00;46.60;;;;;;491901;242;1216;-74
2022/10/21 11:46:33;;;;;;;;;;;24.00;46.50;;;;;;491963;242;1204;-74
2022/10/21 11:48:34;;;;;;;;;;;24.00;46.50;;;;;;491845;242;1084;-73
2022/10/21 11:50:36;;;;;;;;;;;23.90;46.70;;;;;;491889;242;2155;-73
2022/10/21 11:52:37;;;;;;;;;;;23.90;46.70;;;;;;491899;242;1122;-73
2022/10/21 11:54:38;;;;;;;;;;;24.00;46.70;;;;;;491754;242;1181;-73
2022/10/21 11:56:41;;;;;;;;;;;23.90;46.80;;;;;;491923;242;1183;-73